sensor_id;sensor_type;location;lat;lon;timestamp;pressure;altitude;pressure_sealevel;temperature;humidity
18755;BME280;35061;47.664;9.166;2023-06-22T00:00:34;101476.68;;;20.94;88.49
18755;BME280;35061;47.664;9.166;2023-06-22T00:03:02;101474.29;;;20.92;88.62
18755;BME280;35061;47.664;9.166;2023-06-22T00:05:30;101479.59;;;20.94;88.52
18755;BME280;35061;47.664;9.166;2023-06-22T00:08:02;101471.09;;;20.96;88.52
18755;BME280;35061;47.664;9.166;2023-06-22T00:10:31;101469.52;;;20.95;89.30
18755;BME280;35061;47.664;9.166;2023-06-22T00:12:59;101474.52;;;20.95;89.64
18755;BME280;35061;47.664;9.166;2023-06-22T00:15:27;101467.95;;;20.94;89.89
18755;BME280;35061;47.664;9.166;2023-06-22T00:17:56;101467.95;;;20.94;90.21
18755;BME280;35061;47.664;9.166;2023-06-22T00:20:25;101465.04;;;20.94;90.38
18755;BME280;35061;47.664;9.166;2023-06-22T00:22:59;101462.88;;;20.95;91.01
18755;BME280;35061;47.664;9.166;2023-06-22T00:25:27;101468.70;;;20.95;90.90
18755;BME280;35061;47.664;9.166;2023-06-22T00:27:55;101455.49;;;20.94;91.02
18755;BME280;35061;47.664;9.166;2023-06-22T00:30:23;101460.55;;;20.93;91.57
18755;BME280;35061;47.664;9.166;2023-06-22T00:32:51;101456.60;;;20.90;92.05
18755;BME280;35061;47.664;9.166;2023-06-22T00:35:19;101464.55;;;20.90;92.23
18755;BME280;35061;47.664;9.166;2023-06-22T00:37:47;101456.60;;;20.90;93.30
18755;BME280;35061;47.664;9.166;2023-06-22T00:40:14;101462.65;;;20.92;92.87
18755;BME280;35061;47.664;9.166;2023-06-22T00:42:44;101466.38;;;20.93;93.54
18755;BME280;35061;47.664;9.166;2023-06-22T00:45:12;101468.47;;;20.92;93.22
18755;BME280;35061;47.664;9.166;2023-06-22T00:47:40;101465.89;;;20.89;93.52
18755;BME280;35061;47.664;9.166;2023-06-22T00:50:08;101468.57;;;20.87;93.61
18755;BME280;35061;47.664;9.166;2023-06-22T00:52:37;101472.59;;;20.84;93.74
18755;BME280;35061;47.664;9.166;2023-06-22T00:55:10;101467.82;;;20.81;93.87
18755;BME280;35061;47.664;9.166;2023-06-22T00:57:39;101464.68;;;20.78;93.91
18755;BME280;35061;47.664;9.166;2023-06-22T01:00:08;101463.66;;;20.76;94.42
18755;BME280;35061;47.664;9.166;2023-06-22T01:02:38;101462.09;;;20.75;94.31
18755;BME280;35061;47.664;9.166;2023-06-22T01:05:07;101464.77;;;20.73;94.58
18755;BME280;35061;47.664;9.166;2023-06-22T01:07:39;101465.33;;;20.71;95.75
18755;BME280;35061;47.664;9.166;2023-06-22T01:10:51;101466.41;;;20.68;95.11
18755;BME280;35061;47.664;9.166;2023-06-22T01:13:29;101473.80;;;20.69;95.47
18755;BME280;35061;47.664;9.166;2023-06-22T01:16:03;101472.23;;;20.68;95.01
18755;BME280;35061;47.664;9.166;2023-06-22T01:18:35;101479.16;;;20.65;94.98
18755;BME280;35061;47.664;9.166;2023-06-22T01:21:06;101473.64;;;20.61;94.90
18755;BME280;35061;47.664;9.166;2023-06-22T01:26:42;101477.17;;;20.54;96.79
18755;BME280;35061;47.664;9.166;2023-06-22T01:29:12;101479.10;;;20.52;97.12
18755;BME280;35061;47.664;9.166;2023-06-22T01:31:42;101482.01;;;20.52;96.70
18755;BME280;35061;47.664;9.166;2023-06-22T01:34:12;101489.86;;;20.57;96.04
18755;BME280;35061;47.664;9.166;2023-06-22T01:36:41;101492.51;;;20.55;95.94
18755;BME280;35061;47.664;9.166;2023-06-22T01:39:11;101497.80;;;20.56;95.94
18755;BME280;35061;47.664;9.166;2023-06-22T01:41:39;101483.80;;;20.55;95.97
18755;BME280;35061;47.664;9.166;2023-06-22T01:44:10;101493.62;;;20.52;96.21
18755;BME280;35061;47.664;9.166;2023-06-22T01:46:39;101490.70;;;20.52;96.05
18755;BME280;35061;47.664;9.166;2023-06-22T01:49:08;101499.18;;;20.49;96.08
18755;BME280;35061;47.664;9.166;2023-06-22T01:51:36;101504.24;;;20.49;96.04
18755;BME280;35061;47.664;9.166;2023-06-22T01:54:06;101513.50;;;20.47;96.08
18755;BME280;35061;47.664;9.166;2023-06-22T01:56:35;101512.48;;;20.45;96.16
18755;BME280;35061;47.664;9.166;2023-06-22T01:59:16;101505.65;;;20.42;96.19
18755;BME280;35061;47.664;9.166;2023-06-22T02:02:15;101513.34;;;20.40;96.40
18755;BME280;35061;47.664;9.166;2023-06-22T02:04:55;101515.20;;;20.37;96.43
18755;BME280;35061;47.664;9.166;2023-06-22T02:07:31;101509.70;;;20.33;96.44
18755;BME280;35061;47.664;9.166;2023-06-22T02:10:02;101511.60;;;20.31;96.26
18755;BME280;35061;47.664;9.166;2023-06-22T02:12:32;101508.46;;;20.29;96.14
18755;BME280;35061;47.664;9.166;2023-06-22T02:15:01;101517.48;;;20.25;96.11
18755;BME280;35061;47.664;9.166;2023-06-22T02:17:30;101507.94;;;20.25;96.14
18755;BME280;35061;47.664;9.166;2023-06-22T02:20:04;101509.05;;;20.21;96.70
18755;BME280;35061;47.664;9.166;2023-06-22T02:22:36;101507.94;;;20.25;96.97
18755;BME280;35061;47.664;9.166;2023-06-22T02:25:04;101511.41;;;20.23;96.65
18755;BME280;35061;47.664;9.166;2023-06-22T02:27:32;101524.95;;;20.20;96.95
18755;BME280;35061;47.664;9.166;2023-06-22T02:30:00;101531.52;;;20.21;96.92
18755;BME280;35061;47.664;9.166;2023-06-22T02:32:28;101521.22;;;20.20;96.93
18755;BME280;35061;47.664;9.166;2023-06-22T02:34:56;101539.46;;;20.20;96.93
18755;BME280;35061;47.664;9.166;2023-06-22T02:37:24;101533.91;;;20.22;96.99
18755;BME280;35061;47.664;9.166;2023-06-22T02:39:52;101529.95;;;20.20;96.81
18755;BME280;35061;47.664;9.166;2023-06-22T02:42:20;101531.81;;;20.17;97.03
18755;BME280;35061;47.664;9.166;2023-06-22T02:44:49;101534.49;;;20.15;97.04
18755;BME280;35061;47.664;9.166;2023-06-22T02:47:17;101530.80;;;20.15;97.06
18755;BME280;35061;47.664;9.166;2023-06-22T02:49:45;101535.05;;;20.14;96.97
18755;BME280;35061;47.664;9.166;2023-06-22T02:52:14;101539.82;;;20.11;96.94
18755;BME280;35061;47.664;9.166;2023-06-22T02:54:42;101536.68;;;20.09;96.81
18755;BME280;35061;47.664;9.166;2023-06-22T02:57:10;101538.32;;;20.04;96.86
18755;BME280;35061;47.664;9.166;2023-06-22T02:59:41;101539.13;;;19.99;97.61
18755;BME280;35061;47.664;9.166;2023-06-22T03:02:09;101531.74;;;19.98;97.39
18755;BME280;35061;47.664;9.166;2023-06-22T03:04:38;101543.38;;;19.98;97.35
18755;BME280;35061;47.664;9.166;2023-06-22T03:07:06;101536.29;;;19.93;97.79
18755;BME280;35061;47.664;9.166;2023-06-22T03:09:34;101536.03;;;19.91;97.81
18755;BME280;35061;47.664;9.166;2023-06-22T03:12:03;101533.94;;;19.92;97.86
18755;BME280;35061;47.664;9.166;2023-06-22T03:14:31;101531.02;;;19.92;97.89
18755;BME280;35061;47.664;9.166;2023-06-22T03:16:59;101526.52;;;19.91;97.94
18755;BME280;35061;47.664;9.166;2023-06-22T03:19:30;101517.03;;;19.90;98.03
18755;BME280;35061;47.664;9.166;2023-06-22T03:22:00;101517.78;;;19.91;98.04
18755;BME280;35061;47.664;9.166;2023-06-22T03:24:28;101523.90;;;19.93;98.60
18755;BME280;35061;47.664;9.166;2023-06-22T03:26:57;101514.61;;;19.94;97.97
18755;BME280;35061;47.664;9.166;2023-06-22T03:29:25;101524.84;;;20.01;98.13
18755;BME280;35061;47.664;9.166;2023-06-22T03:31:56;101519.35;;;19.98;97.56
18755;BME280;35061;47.664;9.166;2023-06-22T03:34:25;101519.65;;;19.94;97.45
18755;BME280;35061;47.664;9.166;2023-06-22T03:36:53;101509.61;;;19.95;97.83
18755;BME280;35061;47.664;9.166;2023-06-22T03:39:21;101522.49;;;20.00;97.53
18755;BME280;35061;47.664;9.166;2023-06-22T03:41:48;101526.74;;;19.99;96.89
18755;BME280;35061;47.664;9.166;2023-06-22T03:44:16;101516.18;;;19.96;96.83
18755;BME280;35061;47.664;9.166;2023-06-22T03:46:44;101525.70;;;19.96;96.67
18755;BME280;35061;47.664;9.166;2023-06-22T03:49:12;101525.20;;;19.92;96.06
18755;BME280;35061;47.664;9.166;2023-06-22T03:51:40;101514.12;;;19.90;95.85
18755;BME280;35061;47.664;9.166;2023-06-22T03:54:08;101519.45;;;19.86;95.51
18755;BME280;35061;47.664;9.166;2023-06-22T03:56:36;101522.95;;;19.79;95.59
18755;BME280;35061;47.664;9.166;2023-06-22T03:59:04;101511.08;;;19.77;95.53
18755;BME280;35061;47.664;9.166;2023-06-22T04:01:32;101503.69;;;19.76;95.46
18755;BME280;35061;47.664;9.166;2023-06-22T04:04:00;101522.10;;;19.84;95.81
18755;BME280;35061;47.664;9.166;2023-06-22T04:06:28;101524.75;;;19.82;95.42
18755;BME280;35061;47.664;9.166;2023-06-22T04:08:56;101508.66;;;19.81;95.43
18755;BME280;35061;47.664;9.166;2023-06-22T04:11:24;101522.95;;;19.79;95.53
18755;BME280;35061;47.664;9.166;2023-06-22T04:13:52;101511.08;;;19.77;95.58
18755;BME280;35061;47.664;9.166;2023-06-22T04:16:21;101513.14;;;19.82;96.06
18755;BME280;35061;47.664;9.166;2023-06-22T04:18:49;101525.50;;;19.88;95.73
18755;BME280;35061;47.664;9.166;2023-06-22T04:21:17;101517.06;;;19.85;95.36
18755;BME280;35061;47.664;9.166;2023-06-22T04:23:47;101505.98;;;19.83;95.80
18755;BME280;35061;47.664;9.166;2023-06-22T04:26:15;101510.69;;;19.92;95.86
18755;BME280;35061;47.664;9.166;2023-06-22T04:28:43;101510.39;;;19.90;95.52
18755;BME280;35061;47.664;9.166;2023-06-22T04:31:11;101501.20;;;19.86;95.55
18755;BME280;35061;47.664;9.166;2023-06-22T04:33:40;101473.73;;;19.87;95.49
18755;BME280;35061;47.664;9.166;2023-06-22T04:36:08;101481.88;;;19.94;95.81
18755;BME280;35061;47.664;9.166;2023-06-22T04:38:36;101493.98;;;19.98;95.24
18755;BME280;35061;47.664;9.166;2023-06-22T04:41:04;101485.54;;;19.94;95.29
18755;BME280;35061;47.664;9.166;2023-06-22T04:43:33;101481.32;;;19.96;95.63
18755;BME280;35061;47.664;9.166;2023-06-22T04:46:01;101498.16;;;20.03;95.31
18755;BME280;35061;47.664;9.166;2023-06-22T04:48:31;101510.03;;;20.05;95.23
18755;BME280;35061;47.664;9.166;2023-06-22T04:51:01;101492.57;;;20.05;95.22
18755;BME280;35061;47.664;9.166;2023-06-22T04:53:31;101490.87;;;20.15;95.37
18755;BME280;35061;47.664;9.166;2023-06-22T04:55:59;101500.65;;;20.18;95.03
18755;BME280;35061;47.664;9.166;2023-06-22T04:58:27;101498.52;;;20.18;94.98
18755;BME280;35061;47.664;9.166;2023-06-22T05:00:56;101488.78;;;20.16;95.07
18755;BME280;35061;47.664;9.166;2023-06-22T05:03:26;101489.53;;;20.16;94.93
18755;BME280;35061;47.664;9.166;2023-06-22T05:05:54;101476.77;;;20.25;95.52
18755;BME280;35061;47.664;9.166;2023-06-22T05:08:22;101479.52;;;20.36;94.35
18755;BME280;35061;47.664;9.166;2023-06-22T05:10:54;101489.10;;;20.31;94.23
18755;BME280;35061;47.664;9.166;2023-06-22T05:13:31;101503.72;;;20.26;94.70
18755;BME280;35061;47.664;9.166;2023-06-22T05:15:59;101495.28;;;20.22;95.21
18755;BME280;35061;47.664;9.166;2023-06-22T05:18:30;101479.98;;;20.21;95.14
18755;BME280;35061;47.664;9.166;2023-06-22T05:20:59;101492.63;;;20.24;95.02
18755;BME280;35061;47.664;9.166;2023-06-22T05:23:27;101499.30;;;20.19;95.26
18755;BME280;35061;47.664;9.166;2023-06-22T05:25:55;101486.55;;;20.22;95.19
18755;BME280;35061;47.664;9.166;2023-06-22T05:28:25;101466.94;;;20.28;95.51
18755;BME280;35061;47.664;9.166;2023-06-22T05:30:53;101482.53;;;20.31;95.06
18755;BME280;35061;47.664;9.166;2023-06-22T05:33:21;101489.10;;;20.31;95.04
18755;BME280;35061;47.664;9.166;2023-06-22T05:35:49;101472.46;;;20.32;94.95
18755;BME280;35061;47.664;9.166;2023-06-22T05:38:17;101464.94;;;20.42;94.84
18755;BME280;35061;47.664;9.166;2023-06-22T05:40:45;101477.27;;;20.48;94.40
18755;BME280;35061;47.664;9.166;2023-06-22T05:43:13;101480.18;;;20.48;93.92
18755;BME280;35061;47.664;9.166;2023-06-22T05:45:41;101476.41;;;20.54;93.82
18755;BME280;35061;47.664;9.166;2023-06-22T05:48:09;101472.88;;;20.61;93.41
18755;BME280;35061;47.664;9.166;2023-06-22T05:50:37;101475.63;;;20.72;92.62
18755;BME280;35061;47.664;9.166;2023-06-22T05:53:06;101473.73;;;20.75;91.48
18755;BME280;35061;47.664;9.166;2023-06-22T05:55:34;101476.74;;;20.88;91.76
18755;BME280;35061;47.664;9.166;2023-06-22T05:58:02;101466.61;;;20.95;91.11
18755;BME280;35061;47.664;9.166;2023-06-22T06:00:33;101480.47;;;21.02;91.02
18755;BME280;35061;47.664;9.166;2023-06-22T06:03:02;101481.91;;;21.15;90.70
18755;BME280;35061;47.664;9.166;2023-06-22T06:05:31;101481.62;;;21.32;89.98
18755;BME280;35061;47.664;9.166;2023-06-22T06:08:01;101476.65;;;21.46;89.08
18755;BME280;35061;47.664;9.166;2023-06-22T06:10:29;101477.20;;;21.58;88.36
18755;BME280;35061;47.664;9.166;2023-06-22T06:12:58;101474.91;;;21.70;87.99
18755;BME280;35061;47.664;9.166;2023-06-22T06:15:26;101467.20;;;21.72;85.74
18755;BME280;35061;47.664;9.166;2023-06-22T06:17:55;101470.89;;;21.73;86.18
18755;BME280;35061;47.664;9.166;2023-06-22T06:20:24;101466.28;;;21.78;86.27
18755;BME280;35061;47.664;9.166;2023-06-22T06:22:52;101472.55;;;21.82;85.75
18755;BME280;35061;47.664;9.166;2023-06-22T06:25:20;101474.48;;;21.79;84.64
18755;BME280;35061;47.664;9.166;2023-06-22T06:27:50;101475.37;;;21.74;84.54
18755;BME280;35061;47.664;9.166;2023-06-22T06:30:19;101471.91;;;21.75;84.63
18755;BME280;35061;47.664;9.166;2023-06-22T06:32:47;101467.20;;;21.86;84.56
18755;BME280;35061;47.664;9.166;2023-06-22T06:35:15;101472.33;;;21.93;84.49
18755;BME280;35061;47.664;9.166;2023-06-22T06:37:47;101474.16;;;21.96;84.07
18755;BME280;35061;47.664;9.166;2023-06-22T06:40:17;101470.92;;;22.00;83.79
18755;BME280;35061;47.664;9.166;2023-06-22T06:42:47;101470.79;;;22.06;83.86
18755;BME280;35061;47.664;9.166;2023-06-22T06:45:19;101477.30;;;22.12;83.82
18755;BME280;35061;47.664;9.166;2023-06-22T06:47:47;101472.91;;;22.19;83.41
18755;BME280;35061;47.664;9.166;2023-06-22T06:50:15;101463.83;;;22.22;82.95
18755;BME280;35061;47.664;9.166;2023-06-22T06:52:44;101467.75;;;22.25;82.55
18755;BME280;35061;47.664;9.166;2023-06-22T06:55:12;101474.26;;;22.31;82.35
18755;BME280;35061;47.664;9.166;2023-06-22T06:57:41;101482.66;;;22.35;82.00
18755;BME280;35061;47.664;9.166;2023-06-22T07:00:12;101488.16;;;22.38;81.34
18755;BME280;35061;47.664;9.166;2023-06-22T07:02:43;101489.95;;;22.41;80.53
18755;BME280;35061;47.664;9.166;2023-06-22T07:05:12;101486.45;;;22.43;80.50
18755;BME280;35061;47.664;9.166;2023-06-22T07:07:40;101487.05;;;22.41;79.46
18755;BME280;35061;47.664;9.166;2023-06-22T07:10:10;101482.99;;;22.44;79.27
18755;BME280;35061;47.664;9.166;2023-06-22T07:12:38;101476.02;;;22.48;78.88
18755;BME280;35061;47.664;9.166;2023-06-22T07:15:08;101485.28;;;22.52;78.74
18755;BME280;35061;47.664;9.166;2023-06-22T07:17:37;101468.73;;;22.54;78.28
18755;BME280;35061;47.664;9.166;2023-06-22T07:20:05;101480.27;;;22.60;78.35
18755;BME280;35061;47.664;9.166;2023-06-22T07:22:38;101482.30;;;22.65;78.35
18755;BME280;35061;47.664;9.166;2023-06-22T07:25:07;101472.07;;;22.72;78.44
18755;BME280;35061;47.664;9.166;2023-06-22T07:27:39;101480.27;;;22.74;78.44
18755;BME280;35061;47.664;9.166;2023-06-22T07:30:11;101476.55;;;22.73;78.34
18755;BME280;35061;47.664;9.166;2023-06-22T07:32:40;101461.41;;;22.75;78.20
18755;BME280;35061;47.664;9.166;2023-06-22T07:35:08;101467.69;;;22.79;78.54
18755;BME280;35061;47.664;9.166;2023-06-22T07:37:37;101471.80;;;22.83;78.65
18755;BME280;35061;47.664;9.166;2023-06-22T07:40:05;101468.57;;;22.87;78.69
18755;BME280;35061;47.664;9.166;2023-06-22T07:42:34;101468.99;;;22.91;78.76
18755;BME280;35061;47.664;9.166;2023-06-22T07:45:03;101468.21;;;22.91;78.49
18755;BME280;35061;47.664;9.166;2023-06-22T07:47:31;101462.03;;;22.94;78.02
18755;BME280;35061;47.664;9.166;2023-06-22T07:50:03;101449.63;;;23.02;77.71
18755;BME280;35061;47.664;9.166;2023-06-22T07:52:32;101443.09;;;23.09;77.39
18755;BME280;35061;47.664;9.166;2023-06-22T07:55:00;101460.69;;;23.17;77.40
18755;BME280;35061;47.664;9.166;2023-06-22T07:57:28;101458.07;;;23.26;77.07
18755;BME280;35061;47.664;9.166;2023-06-22T08:00:04;101464.19;;;23.36;76.85
18755;BME280;35061;47.664;9.166;2023-06-22T08:02:45;101476.94;;;23.47;76.58
18755;BME280;35061;47.664;9.166;2023-06-22T08:05:14;101483.71;;;23.63;75.87
18755;BME280;35061;47.664;9.166;2023-06-22T08:07:49;101511.99;;;23.68;75.37
18755;BME280;35061;47.664;9.166;2023-06-22T08:10:17;101550.09;;;23.76;75.73
18755;BME280;35061;47.664;9.166;2023-06-22T08:12:45;101589.30;;;23.80;74.84
18755;BME280;35061;47.664;9.166;2023-06-22T08:15:13;101587.30;;;23.75;75.11
18755;BME280;35061;47.664;9.166;2023-06-22T08:17:41;101557.52;;;23.77;75.38
18755;BME280;35061;47.664;9.166;2023-06-22T08:20:10;101559.84;;;23.78;75.20
18755;BME280;35061;47.664;9.166;2023-06-22T08:22:42;101570.20;;;23.79;74.42
18755;BME280;35061;47.664;9.166;2023-06-22T08:25:10;101585.60;;;23.80;74.67
18755;BME280;35061;47.664;9.166;2023-06-22T08:27:38;101606.63;;;23.78;74.94
18755;BME280;35061;47.664;9.166;2023-06-22T08:30:09;101584.16;;;23.73;75.41
18755;BME280;35061;47.664;9.166;2023-06-22T08:32:38;101565.82;;;23.73;75.40
18755;BME280;35061;47.664;9.166;2023-06-22T08:35:07;101589.82;;;23.71;75.14
18755;BME280;35061;47.664;9.166;2023-06-22T08:37:38;101576.31;;;23.68;75.03
18755;BME280;35061;47.664;9.166;2023-06-22T08:40:09;101570.46;;;23.68;75.12
18755;BME280;35061;47.664;9.166;2023-06-22T08:42:39;101591.36;;;23.72;75.19
18755;BME280;35061;47.664;9.166;2023-06-22T08:45:08;101603.06;;;23.72;75.01
18755;BME280;35061;47.664;9.166;2023-06-22T08:47:37;101578.87;;;23.72;75.27
18755;BME280;35061;47.664;9.166;2023-06-22T08:50:06;101601.01;;;23.80;75.67
18755;BME280;35061;47.664;9.166;2023-06-22T08:52:36;101583.31;;;23.86;75.72
18755;BME280;35061;47.664;9.166;2023-06-22T08:55:04;101571.67;;;23.94;75.83
18755;BME280;35061;47.664;9.166;2023-06-22T08:57:33;101562.38;;;24.03;75.83
18755;BME280;35061;47.664;9.166;2023-06-22T09:00:01;101575.95;;;24.14;75.78
18755;BME280;35061;47.664;9.166;2023-06-22T09:02:28;101579.72;;;24.22;75.28
18755;BME280;35061;47.664;9.166;2023-06-22T09:04:59;101576.84;;;24.30;75.20
18755;BME280;35061;47.664;9.166;2023-06-22T09:07:27;101575.34;;;24.37;75.18
18755;BME280;35061;47.664;9.166;2023-06-22T09:09:55;101569.19;;;24.48;74.92
18755;BME280;35061;47.664;9.166;2023-06-22T09:12:27;101559.64;;;24.56;74.35
18755;BME280;35061;47.664;9.166;2023-06-22T09:15:01;101561.83;;;24.63;74.23
18755;BME280;35061;47.664;9.166;2023-06-22T09:17:30;101539.43;;;24.73;73.76
18755;BME280;35061;47.664;9.166;2023-06-22T09:19:58;101542.21;;;24.79;73.37
18755;BME280;35061;47.664;9.166;2023-06-22T09:22:28;101532.70;;;24.86;72.14
18755;BME280;35061;47.664;9.166;2023-06-22T09:24:57;101534.66;;;24.91;72.65
18755;BME280;35061;47.664;9.166;2023-06-22T09:27:25;101520.63;;;24.98;72.38
18755;BME280;35061;47.664;9.166;2023-06-22T09:29:53;101523.77;;;25.07;72.11
18755;BME280;35061;47.664;9.166;2023-06-22T09:32:21;101523.21;;;25.17;71.90
18755;BME280;35061;47.664;9.166;2023-06-22T09:34:49;101510.72;;;25.24;71.66
18755;BME280;35061;47.664;9.166;2023-06-22T09:37:17;101518.14;;;25.33;71.19
18755;BME280;35061;47.664;9.166;2023-06-22T09:39:45;101512.48;;;25.43;71.30
18755;BME280;35061;47.664;9.166;2023-06-22T09:42:13;101510.75;;;25.47;71.10
18755;BME280;35061;47.664;9.166;2023-06-22T09:44:41;101507.05;;;25.47;70.04
18755;BME280;35061;47.664;9.166;2023-06-22T09:47:09;101505.68;;;25.56;70.23
18755;BME280;35061;47.664;9.166;2023-06-22T09:49:37;101489.27;;;25.68;70.05
18755;BME280;35061;47.664;9.166;2023-06-22T09:52:14;101490.87;;;25.77;69.61
18755;BME280;35061;47.664;9.166;2023-06-22T09:54:42;101495.35;;;25.86;69.33
18755;BME280;35061;47.664;9.166;2023-06-22T09:57:10;101481.45;;;25.94;69.12
18755;BME280;35061;47.664;9.166;2023-06-22T09:59:38;101474.00;;;26.01;67.94
18755;BME280;35061;47.664;9.166;2023-06-22T10:02:08;101478.28;;;26.08;68.28
18755;BME280;35061;47.664;9.166;2023-06-22T10:04:36;101477.49;;;26.15;68.03
18755;BME280;35061;47.664;9.166;2023-06-22T10:07:05;101469.68;;;26.25;67.69
18755;BME280;35061;47.664;9.166;2023-06-22T10:09:33;101461.21;;;26.37;67.41
18755;BME280;35061;47.664;9.166;2023-06-22T10:12:01;101472.95;;;26.45;66.95
18755;BME280;35061;47.664;9.166;2023-06-22T10:14:29;101465.66;;;26.54;66.63
18755;BME280;35061;47.664;9.166;2023-06-22T10:16:57;101466.77;;;26.66;66.59
18755;BME280;35061;47.664;9.166;2023-06-22T10:19:25;101450.65;;;26.75;66.64
18755;BME280;35061;47.664;9.166;2023-06-22T10:21:53;101459.61;;;26.85;66.10
18755;BME280;35061;47.664;9.166;2023-06-22T10:24:23;101465.46;;;26.93;65.60
18755;BME280;35061;47.664;9.166;2023-06-22T10:26:51;101461.90;;;27.02;65.27
18755;BME280;35061;47.664;9.166;2023-06-22T10:29:20;101455.36;;;27.11;65.59
18755;BME280;35061;47.664;9.166;2023-06-22T10:31:48;101444.53;;;27.22;65.94
18755;BME280;35061;47.664;9.166;2023-06-22T10:34:15;101434.43;;;27.33;65.56
18755;BME280;35061;47.664;9.166;2023-06-22T10:36:43;101430.24;;;27.43;65.20
18755;BME280;35061;47.664;9.166;2023-06-22T10:39:14;101429.55;;;27.53;64.36
18755;BME280;35061;47.664;9.166;2023-06-22T10:41:42;101420.86;;;27.63;63.88
18755;BME280;35061;47.664;9.166;2023-06-22T10:44:10;101427.79;;;27.75;63.61
18755;BME280;35061;47.664;9.166;2023-06-22T10:46:39;101424.36;;;27.86;63.15
18755;BME280;35061;47.664;9.166;2023-06-22T10:49:07;101419.16;;;27.95;62.22
18755;BME280;35061;47.664;9.166;2023-06-22T10:51:35;101427.73;;;28.00;61.67
18755;BME280;35061;47.664;9.166;2023-06-22T10:54:03;101432.77;;;28.08;61.48
18755;BME280;35061;47.664;9.166;2023-06-22T10:56:32;101423.51;;;28.11;61.41
18755;BME280;35061;47.664;9.166;2023-06-22T10:59:01;101424.98;;;28.20;61.59
18755;BME280;35061;47.664;9.166;2023-06-22T11:01:29;101434.33;;;28.26;61.24
18755;BME280;35061;47.664;9.166;2023-06-22T11:04:02;101443.69;;;28.33;60.93
18755;BME280;35061;47.664;9.166;2023-06-22T11:06:31;101435.02;;;28.35;60.60
18755;BME280;35061;47.664;9.166;2023-06-22T11:08:59;101438.42;;;28.31;60.42
18755;BME280;35061;47.664;9.166;2023-06-22T11:11:42;101424.72;;;28.26;60.19
18755;BME280;35061;47.664;9.166;2023-06-22T11:14:11;101423.97;;;28.25;60.28
18755;BME280;35061;47.664;9.166;2023-06-22T11:16:39;101425.14;;;28.22;60.06
18755;BME280;35061;47.664;9.166;2023-06-22T11:19:07;101431.29;;;28.17;59.96
18755;BME280;35061;47.664;9.166;2023-06-22T11:21:35;101433.97;;;28.05;59.95
18755;BME280;35061;47.664;9.166;2023-06-22T11:24:03;101444.50;;;27.90;60.15
18755;BME280;35061;47.664;9.166;2023-06-22T11:26:31;101445.02;;;27.79;60.39
18755;BME280;35061;47.664;9.166;2023-06-22T11:29:02;101442.93;;;27.71;60.54
18755;BME280;35061;47.664;9.166;2023-06-22T11:31:34;101445.71;;;27.69;60.51
18755;BME280;35061;47.664;9.166;2023-06-22T11:34:02;101443.98;;;27.66;60.52
18755;BME280;35061;47.664;9.166;2023-06-22T11:36:30;101441.20;;;27.68;60.74
18755;BME280;35061;47.664;9.166;2023-06-22T11:39:01;101446.34;;;27.68;60.90
18755;BME280;35061;47.664;9.166;2023-06-22T11:41:29;101448.30;;;27.65;61.06
18755;BME280;35061;47.664;9.166;2023-06-22T11:43:57;101446.92;;;27.66;61.04
18755;BME280;35061;47.664;9.166;2023-06-22T11:46:25;101432.89;;;27.57;60.89
18755;BME280;35061;47.664;9.166;2023-06-22T11:48:53;101431.72;;;27.52;60.84
18755;BME280;35061;47.664;9.166;2023-06-22T11:51:21;101437.44;;;27.50;60.95
18755;BME280;35061;47.664;9.166;2023-06-22T11:53:49;101438.02;;;27.49;61.22
18755;BME280;35061;47.664;9.166;2023-06-22T11:56:17;101432.56;;;27.45;61.44
18755;BME280;35061;47.664;9.166;2023-06-22T11:58:45;101431.78;;;27.44;61.55
18755;BME280;35061;47.664;9.166;2023-06-22T12:01:13;101432.30;;;27.51;61.51
18755;BME280;35061;47.664;9.166;2023-06-22T12:03:42;101426.22;;;27.56;61.54
18755;BME280;35061;47.664;9.166;2023-06-22T12:06:11;101430.48;;;27.63;61.43
18755;BME280;35061;47.664;9.166;2023-06-22T12:08:39;101435.67;;;27.72;61.74
18755;BME280;35061;47.664;9.166;2023-06-22T12:11:07;101434.04;;;27.79;60.81
18755;BME280;35061;47.664;9.166;2023-06-22T12:13:35;101434.46;;;27.76;60.76
18755;BME280;35061;47.664;9.166;2023-06-22T12:16:03;101428.51;;;27.83;60.79
18755;BME280;35061;47.664;9.166;2023-06-22T12:18:32;101430.24;;;27.86;60.84
18755;BME280;35061;47.664;9.166;2023-06-22T12:21:00;101434.30;;;27.91;61.11
18755;BME280;35061;47.664;9.166;2023-06-22T12:23:28;101446.59;;;27.97;61.24
18755;BME280;35061;47.664;9.166;2023-06-22T12:25:56;101438.91;;;28.02;61.75
18755;BME280;35061;47.664;9.166;2023-06-22T12:28:24;101437.24;;;28.09;61.59
18755;BME280;35061;47.664;9.166;2023-06-22T12:30:52;101437.24;;;28.09;60.91
18755;BME280;35061;47.664;9.166;2023-06-22T12:33:20;101431.55;;;28.11;60.59
18755;BME280;35061;47.664;9.166;2023-06-22T12:35:48;101434.30;;;28.09;60.75
18755;BME280;35061;47.664;9.166;2023-06-22T12:38:16;101431.36;;;28.09;60.96
18755;BME280;35061;47.664;9.166;2023-06-22T12:40:44;101435.97;;;28.02;60.53
18755;BME280;35061;47.664;9.166;2023-06-22T12:43:14;101426.78;;;27.98;60.87
18755;BME280;35061;47.664;9.166;2023-06-22T12:45:43;101433.13;;;27.94;61.90
18755;BME280;35061;47.664;9.166;2023-06-22T12:48:10;101423.93;;;27.90;61.69
18755;BME280;35061;47.664;9.166;2023-06-22T12:50:40;101423.93;;;27.90;61.61
18755;BME280;35061;47.664;9.166;2023-06-22T12:53:08;101421.22;;;27.84;61.36
18755;BME280;35061;47.664;9.166;2023-06-22T12:55:36;101418.11;;;27.82;61.74
18755;BME280;35061;47.664;9.166;2023-06-22T12:58:04;101419.59;;;27.91;61.96
18755;BME280;35061;47.664;9.166;2023-06-22T13:00:32;101411.31;;;27.97;61.54
18755;BME280;35061;47.664;9.166;2023-06-22T13:03:00;101403.76;;;28.04;60.95